sensor_id;sensor_type;location;lat;lon;timestamp;temperature;humidity
5834;DHT22;2943;48.012;10.968;2022-12-11T00:02:13;-2.50;99.90
5834;DHT22;2943;48.012;10.968;2022-12-11T00:04:40;-2.60;99.90
5834;DHT22;2943;48.012;10.968;2022-12-11T00:07:07;-2.60;99.90
5834;DHT22;2943;48.012;10.968;2022-12-11T00:09:35;-2.60;99.90
5834;DHT22;2943;48.012;10.968;2022-12-11T00:12:02;-2.60;99.90
5834;DHT22;2943;48.012;10.968;2022-12-11T00:14:30;-2.60;99.90
5834;DHT22;2943;48.012;10.968;2022-12-11T00:16:56;-2.70;99.90
5834;DHT22;2943;48.012;10.968;2022-12-11T00:19:23;-2.70;99.90
5834;DHT22;2943;48.012;10.968;2022-12-11T00:21:50;-2.70;99.90
5834;DHT22;2943;48.012;10.968;2022-12-11T00:24:17;-2.70;99.90
5834;DHT22;2943;48.012;10.968;2022-12-11T00:26:45;-2.70;99.90
5834;DHT22;2943;48.012;10.968;2022-12-11T00:29:12;-2.80;99.90
5834;DHT22;2943;48.012;10.968;2022-12-11T00:31:40;-2.80;99.90
5834;DHT22;2943;48.012;10.968;2022-12-11T00:34:09;-2.90;99.90
5834;DHT22;2943;48.012;10.968;2022-12-11T00:36:37;-2.90;99.90
5834;DHT22;2943;48.012;10.968;2022-12-11T00:39:04;-2.90;99.90
5834;DHT22;2943;48.012;10.968;2022-12-11T00:41:31;-2.80;99.90
5834;DHT22;2943;48.012;10.968;2022-12-11T00:43:59;-2.80;99.90
5834;DHT22;2943;48.012;10.968;2022-12-11T00:46:26;-2.70;99.90
5834;DHT22;2943;48.012;10.968;2022-12-11T00:48:53;-2.70;99.90
5834;DHT22;2943;48.012;10.968;2022-12-11T00:51:20;-2.70;99.90
5834;DHT22;2943;48.012;10.968;2022-12-11T00:53:47;-2.80;99.90
5834;DHT22;2943;48.012;10.968;2022-12-11T00:56:17;-2.80;99.90
5834;DHT22;2943;48.012;10.968;2022-12-11T00:58:44;-2.80;99.90
5834;DHT22;2943;48.012;10.968;2022-12-11T01:01:14;-2.80;99.90
5834;DHT22;2943;48.012;10.968;2022-12-11T01:03:42;-2.80;99.90
5834;DHT22;2943;48.012;10.968;2022-12-11T01:06:13;-2.80;99.90
5834;DHT22;2943;48.012;10.968;2022-12-11T01:08:40;-2.80;99.90
5834;DHT22;2943;48.012;10.968;2022-12-11T01:11:09;-2.80;99.90
5834;DHT22;2943;48.012;10.968;2022-12-11T01:13:36;-2.80;99.90
5834;DHT22;2943;48.012;10.968;2022-12-11T01:16:07;-2.80;99.90
5834;DHT22;2943;48.012;10.968;2022-12-11T01:18:39;-2.80;99.90
5834;DHT22;2943;48.012;10.968;2022-12-11T01:21:07;-2.90;99.90
5834;DHT22;2943;48.012;10.968;2022-12-11T01:23:34;-2.80;99.90
5834;DHT22;2943;48.012;10.968;2022-12-11T01:26:05;-2.80;99.90
5834;DHT22;2943;48.012;10.968;2022-12-11T01:28:32;-2.80;99.90
5834;DHT22;2943;48.012;10.968;2022-12-11T01:30:59;-2.80;99.90
5834;DHT22;2943;48.012;10.968;2022-12-11T01:33:27;-2.80;99.90
5834;DHT22;2943;48.012;10.968;2022-12-11T01:35:55;-2.80;99.90
5834;DHT22;2943;48.012;10.968;2022-12-11T01:38:22;-2.80;99.90
5834;DHT22;2943;48.012;10.968;2022-12-11T01:40:50;-2.90;99.90
5834;DHT22;2943;48.012;10.968;2022-12-11T01:43:17;-2.80;99.90
5834;DHT22;2943;48.012;10.968;2022-12-11T01:45:45;-2.90;99.90
5834;DHT22;2943;48.012;10.968;2022-12-11T01:48:16;-2.90;99.90
5834;DHT22;2943;48.012;10.968;2022-12-11T01:50:47;-2.80;99.90
5834;DHT22;2943;48.012;10.968;2022-12-11T01:53:20;-2.80;99.90
5834;DHT22;2943;48.012;10.968;2022-12-11T01:55:50;-2.80;99.90
5834;DHT22;2943;48.012;10.968;2022-12-11T01:58:19;-2.80;99.90
5834;DHT22;2943;48.012;10.968;2022-12-11T02:00:46;-2.70;99.90
5834;DHT22;2943;48.012;10.968;2022-12-11T02:03:13;-2.70;99.90
5834;DHT22;2943;48.012;10.968;2022-12-11T02:05:40;-2.70;99.90
5834;DHT22;2943;48.012;10.968;2022-12-11T02:08:07;-2.70;99.90
5834;DHT22;2943;48.012;10.968;2022-12-11T02:10:47;-2.60;99.90
5834;DHT22;2943;48.012;10.968;2022-12-11T02:13:18;-2.60;99.90
5834;DHT22;2943;48.012;10.968;2022-12-11T02:15:49;-2.50;99.90
5834;DHT22;2943;48.012;10.968;2022-12-11T02:18:26;-2.50;99.90
5834;DHT22;2943;48.012;10.968;2022-12-11T02:20:57;-2.50;99.90
5834;DHT22;2943;48.012;10.968;2022-12-11T02:23:37;-2.50;99.90
5834;DHT22;2943;48.012;10.968;2022-12-11T02:26:18;-2.50;99.90
5834;DHT22;2943;48.012;10.968;2022-12-11T02:28:51;-2.50;99.90
5834;DHT22;2943;48.012;10.968;2022-12-11T02:31:23;-2.50;99.90
5834;DHT22;2943;48.012;10.968;2022-12-11T02:33:57;-2.40;99.90
5834;DHT22;2943;48.012;10.968;2022-12-11T02:36:30;-2.40;99.90
5834;DHT22;2943;48.012;10.968;2022-12-11T02:39:00;-2.40;99.90
5834;DHT22;2943;48.012;10.968;2022-12-11T02:41:29;-2.40;99.90
5834;DHT22;2943;48.012;10.968;2022-12-11T02:43:58;-2.40;99.90
5834;DHT22;2943;48.012;10.968;2022-12-11T02:46:26;-2.40;99.90
5834;DHT22;2943;48.012;10.968;2022-12-11T02:48:55;-2.40;99.90
5834;DHT22;2943;48.012;10.968;2022-12-11T02:51:25;-2.40;99.90
5834;DHT22;2943;48.012;10.968;2022-12-11T02:53:56;-2.40;99.90
5834;DHT22;2943;48.012;10.968;2022-12-11T02:56:31;-2.40;99.90
5834;DHT22;2943;48.012;10.968;2022-12-11T02:59:07;-2.40;99.90
5834;DHT22;2943;48.012;10.968;2022-12-11T03:01:34;-2.40;99.90
5834;DHT22;2943;48.012;10.968;2022-12-11T03:04:01;-2.40;99.90
5834;DHT22;2943;48.012;10.968;2022-12-11T03:06:34;-2.40;99.90
5834;DHT22;2943;48.012;10.968;2022-12-11T03:09:02;-2.40;99.90
5834;DHT22;2943;48.012;10.968;2022-12-11T03:11:29;-2.40;99.90
5834;DHT22;2943;48.012;10.968;2022-12-11T03:13:56;-2.40;99.90
5834;DHT22;2943;48.012;10.968;2022-12-11T03:16:32;-2.50;99.90
5834;DHT22;2943;48.012;10.968;2022-12-11T03:19:05;-2.50;99.90
5834;DHT22;2943;48.012;10.968;2022-12-11T03:21:39;-2.50;99.90
5834;DHT22;2943;48.012;10.968;2022-12-11T03:24:11;-2.50;99.90
5834;DHT22;2943;48.012;10.968;2022-12-11T03:26:44;-2.50;99.90
5834;DHT22;2943;48.012;10.968;2022-12-11T03:29:16;-2.50;99.90
5834;DHT22;2943;48.012;10.968;2022-12-11T03:31:52;-2.50;99.90
5834;DHT22;2943;48.012;10.968;2022-12-11T03:34:24;-2.50;99.90
5834;DHT22;2943;48.012;10.968;2022-12-11T03:36:53;-2.50;99.90
5834;DHT22;2943;48.012;10.968;2022-12-11T03:39:24;-2.50;99.90
5834;DHT22;2943;48.012;10.968;2022-12-11T03:41:53;-2.50;99.90
5834;DHT22;2943;48.012;10.968;2022-12-11T03:44:21;-2.50;99.90
5834;DHT22;2943;48.012;10.968;2022-12-11T03:46:51;-2.50;99.90
5834;DHT22;2943;48.012;10.968;2022-12-11T03:49:22;-2.50;99.90
5834;DHT22;2943;48.012;10.968;2022-12-11T03:51:51;-2.50;99.90
5834;DHT22;2943;48.012;10.968;2022-12-11T03:54:19;-2.50;99.90
5834;DHT22;2943;48.012;10.968;2022-12-11T03:56:47;-2.50;99.90
5834;DHT22;2943;48.012;10.968;2022-12-11T03:59:16;-2.50;99.90
5834;DHT22;2943;48.012;10.968;2022-12-11T04:01:43;-2.60;99.90
5834;DHT22;2943;48.012;10.968;2022-12-11T04:04:14;-2.60;99.90
5834;DHT22;2943;48.012;10.968;2022-12-11T04:06:41;-2.70;99.90
5834;DHT22;2943;48.012;10.968;2022-12-11T04:09:08;-2.70;99.90
5834;DHT22;2943;48.012;10.968;2022-12-11T04:11:35;-2.70;99.90
5834;DHT22;2943;48.012;10.968;2022-12-11T04:14:04;-2.70;99.90
5834;DHT22;2943;48.012;10.968;2022-12-11T04:16:48;-2.70;99.90
5834;DHT22;2943;48.012;10.968;2022-12-11T04:19:17;-2.70;99.90
5834;DHT22;2943;48.012;10.968;2022-12-11T04:22:02;-2.70;99.90
5834;DHT22;2943;48.012;10.968;2022-12-11T04:24:47;-2.70;99.90
5834;DHT22;2943;48.012;10.968;2022-12-11T04:27:14;-2.70;99.90
5834;DHT22;2943;48.012;10.968;2022-12-11T04:30:04;-2.70;99.90
5834;DHT22;2943;48.012;10.968;2022-12-11T04:32:31;-2.60;99.90
5834;DHT22;2943;48.012;10.968;2022-12-11T04:35:00;-2.60;99.90
5834;DHT22;2943;48.012;10.968;2022-12-11T04:37:27;-2.60;99.90
5834;DHT22;2943;48.012;10.968;2022-12-11T04:39:54;-2.60;99.90
5834;DHT22;2943;48.012;10.968;2022-12-11T04:42:21;-2.60;99.90
5834;DHT22;2943;48.012;10.968;2022-12-11T04:44:47;-2.60;99.90
5834;DHT22;2943;48.012;10.968;2022-12-11T04:47:14;-2.60;99.90
5834;DHT22;2943;48.012;10.968;2022-12-11T04:49:41;-2.60;99.90
5834;DHT22;2943;48.012;10.968;2022-12-11T04:52:09;-2.60;99.90
5834;DHT22;2943;48.012;10.968;2022-12-11T04:54:36;-2.70;99.90
5834;DHT22;2943;48.012;10.968;2022-12-11T04:57:03;-2.70;99.90
5834;DHT22;2943;48.012;10.968;2022-12-11T04:59:30;-2.70;99.90
5834;DHT22;2943;48.012;10.968;2022-12-11T05:01:57;-2.70;99.90
5834;DHT22;2943;48.012;10.968;2022-12-11T05:04:24;-2.70;99.90
5834;DHT22;2943;48.012;10.968;2022-12-11T05:06:51;-2.70;99.90
5834;DHT22;2943;48.012;10.968;2022-12-11T05:09:19;-2.80;99.90
5834;DHT22;2943;48.012;10.968;2022-12-11T05:11:46;-2.80;99.90
5834;DHT22;2943;48.012;10.968;2022-12-11T05:14:13;-2.80;99.90
5834;DHT22;2943;48.012;10.968;2022-12-11T05:16:39;-2.80;99.90
5834;DHT22;2943;48.012;10.968;2022-12-11T05:19:06;-2.80;99.90
5834;DHT22;2943;48.012;10.968;2022-12-11T05:21:33;-2.80;99.90
5834;DHT22;2943;48.012;10.968;2022-12-11T05:24:00;-2.80;99.90
5834;DHT22;2943;48.012;10.968;2022-12-11T05:26:28;-2.80;99.90
5834;DHT22;2943;48.012;10.968;2022-12-11T05:28:55;-2.80;99.90
5834;DHT22;2943;48.012;10.968;2022-12-11T05:31:24;-2.80;99.90
5834;DHT22;2943;48.012;10.968;2022-12-11T05:33:54;-2.70;99.90
5834;DHT22;2943;48.012;10.968;2022-12-11T05:36:23;-2.70;99.90
5834;DHT22;2943;48.012;10.968;2022-12-11T05:38:51;-2.60;99.90
5834;DHT22;2943;48.012;10.968;2022-12-11T05:41:20;-2.60;99.90
5834;DHT22;2943;48.012;10.968;2022-12-11T05:43:49;-2.60;99.90
5834;DHT22;2943;48.012;10.968;2022-12-11T05:46:18;-2.60;99.90
5834;DHT22;2943;48.012;10.968;2022-12-11T05:48:48;-2.60;99.90
5834;DHT22;2943;48.012;10.968;2022-12-11T05:51:16;-2.50;99.90
5834;DHT22;2943;48.012;10.968;2022-12-11T05:53:49;-2.50;99.90
5834;DHT22;2943;48.012;10.968;2022-12-11T05:56:18;-2.50;99.90
5834;DHT22;2943;48.012;10.968;2022-12-11T05:58:48;-2.50;99.90
5834;DHT22;2943;48.012;10.968;2022-12-11T06:01:17;-2.50;99.90
5834;DHT22;2943;48.012;10.968;2022-12-11T06:03:45;-2.60;99.90
5834;DHT22;2943;48.012;10.968;2022-12-11T06:06:13;-2.60;99.90
5834;DHT22;2943;48.012;10.968;2022-12-11T06:08:40;-2.60;99.90
5834;DHT22;2943;48.012;10.968;2022-12-11T06:11:07;-2.60;99.90
5834;DHT22;2943;48.012;10.968;2022-12-11T06:13:35;-2.60;99.90
5834;DHT22;2943;48.012;10.968;2022-12-11T06:16:06;-2.60;99.90
5834;DHT22;2943;48.012;10.968;2022-12-11T06:18:35;-2.60;99.90
5834;DHT22;2943;48.012;10.968;2022-12-11T06:21:10;-2.60;99.90
5834;DHT22;2943;48.012;10.968;2022-12-11T06:23:38;-2.50;99.90
5834;DHT22;2943;48.012;10.968;2022-12-11T06:26:05;-2.60;99.90
5834;DHT22;2943;48.012;10.968;2022-12-11T06:28:33;-2.60;99.90
5834;DHT22;2943;48.012;10.968;2022-12-11T06:31:03;-2.60;99.90
5834;DHT22;2943;48.012;10.968;2022-12-11T06:33:33;-2.60;99.90
5834;DHT22;2943;48.012;10.968;2022-12-11T06:36:01;-2.50;99.90
5834;DHT22;2943;48.012;10.968;2022-12-11T06:38:30;-2.50;99.90
5834;DHT22;2943;48.012;10.968;2022-12-11T06:40:57;-2.50;99.90
5834;DHT22;2943;48.012;10.968;2022-12-11T06:43:25;-2.50;99.90
5834;DHT22;2943;48.012;10.968;2022-12-11T06:45:52;-2.50;99.90
5834;DHT22;2943;48.012;10.968;2022-12-11T06:48:19;-2.60;99.90
5834;DHT22;2943;48.012;10.968;2022-12-11T06:50:48;-2.60;99.90
5834;DHT22;2943;48.012;10.968;2022-12-11T06:53:16;-2.70;99.90
5834;DHT22;2943;48.012;10.968;2022-12-11T06:55:43;-2.70;99.90
5834;DHT22;2943;48.012;10.968;2022-12-11T06:58:10;-2.70;99.90
5834;DHT22;2943;48.012;10.968;2022-12-11T07:00:38;-2.60;99.90
5834;DHT22;2943;48.012;10.968;2022-12-11T07:03:05;-2.70;99.90
5834;DHT22;2943;48.012;10.968;2022-12-11T07:05:33;-2.70;99.90
5834;DHT22;2943;48.012;10.968;2022-12-11T07:08:04;-2.70;99.90
5834;DHT22;2943;48.012;10.968;2022-12-11T07:10:35;-2.70;99.90
5834;DHT22;2943;48.012;10.968;2022-12-11T07:13:02;-2.70;99.90
5834;DHT22;2943;48.012;10.968;2022-12-11T07:15:29;-2.70;99.90
5834;DHT22;2943;48.012;10.968;2022-12-11T07:17:56;-2.70;99.90
5834;DHT22;2943;48.012;10.968;2022-12-11T07:20:23;-2.70;99.90
5834;DHT22;2943;48.012;10.968;2022-12-11T07:22:52;-2.60;99.90
5834;DHT22;2943;48.012;10.968;2022-12-11T07:25:21;-2.60;99.90
5834;DHT22;2943;48.012;10.968;2022-12-11T07:27:49;-2.60;99.90
5834;DHT22;2943;48.012;10.968;2022-12-11T07:30:16;-2.60;99.90
5834;DHT22;2943;48.012;10.968;2022-12-11T07:32:43;-2.60;99.90
5834;DHT22;2943;48.012;10.968;2022-12-11T07:35:10;-2.60;99.90
5834;DHT22;2943;48.012;10.968;2022-12-11T07:37:39;-2.60;99.90
5834;DHT22;2943;48.012;10.968;2022-12-11T07:40:08;-2.60;99.90
5834;DHT22;2943;48.012;10.968;2022-12-11T07:42:39;-2.60;99.90
5834;DHT22;2943;48.012;10.968;2022-12-11T07:45:07;-2.60;99.90
5834;DHT22;2943;48.012;10.968;2022-12-11T07:47:36;-2.70;99.90
5834;DHT22;2943;48.012;10.968;2022-12-11T07:50:04;-2.70;99.90
5834;DHT22;2943;48.012;10.968;2022-12-11T07:52:32;-2.70;99.90
5834;DHT22;2943;48.012;10.968;2022-12-11T07:55:00;-2.80;99.90
5834;DHT22;2943;48.012;10.968;2022-12-11T07:57:28;-2.80;99.90
5834;DHT22;2943;48.012;10.968;2022-12-11T07:59:56;-2.80;99.90
5834;DHT22;2943;48.012;10.968;2022-12-11T08:02:25;-2.80;99.90
5834;DHT22;2943;48.012;10.968;2022-12-11T08:04:53;-2.80;99.90
5834;DHT22;2943;48.012;10.968;2022-12-11T08:07:20;-2.80;99.90
5834;DHT22;2943;48.012;10.968;2022-12-11T08:09:47;-2.80;99.90
5834;DHT22;2943;48.012;10.968;2022-12-11T08:12:17;-2.80;99.90
5834;DHT22;2943;48.012;10.968;2022-12-11T08:14:48;-2.80;99.90
5834;DHT22;2943;48.012;10.968;2022-12-11T08:17:17;-2.80;99.90
5834;DHT22;2943;48.012;10.968;2022-12-11T08:19:44;-2.80;99.90
5834;DHT22;2943;48.012;10.968;2022-12-11T08:22:11;-2.80;99.90
5834;DHT22;2943;48.012;10.968;2022-12-11T08:24:39;-2.80;99.90
5834;DHT22;2943;48.012;10.968;2022-12-11T08:27:09;-2.80;99.90
5834;DHT22;2943;48.012;10.968;2022-12-11T08:29:38;-2.90;99.90
5834;DHT22;2943;48.012;10.968;2022-12-11T08:32:06;-2.90;99.90
5834;DHT22;2943;48.012;10.968;2022-12-11T08:34:36;-2.90;99.90
5834;DHT22;2943;48.012;10.968;2022-12-11T08:37:03;-2.90;99.90
5834;DHT22;2943;48.012;10.968;2022-12-11T08:39:30;-3.00;99.90
5834;DHT22;2943;48.012;10.968;2022-12-11T08:41:57;-3.00;99.90
5834;DHT22;2943;48.012;10.968;2022-12-11T08:44:24;-3.10;99.90
5834;DHT22;2943;48.012;10.968;2022-12-11T08:46:52;-3.10;99.90
5834;DHT22;2943;48.012;10.968;2022-12-11T08:49:19;-3.10;99.90
5834;DHT22;2943;48.012;10.968;2022-12-11T08:51:48;-3.10;99.90
5834;DHT22;2943;48.012;10.968;2022-12-11T08:54:14;-3.10;99.90
5834;DHT22;2943;48.012;10.968;2022-12-11T08:56:43;-3.10;99.90
5834;DHT22;2943;48.012;10.968;2022-12-11T08:59:10;-3.10;99.90
5834;DHT22;2943;48.012;10.968;2022-12-11T09:01:37;-3.10;99.90
5834;DHT22;2943;48.012;10.968;2022-12-11T09:04:04;-3.00;99.90
5834;DHT22;2943;48.012;10.968;2022-12-11T09:06:33;-2.90;99.90
5834;DHT22;2943;48.012;10.968;2022-12-11T09:09:04;-2.90;99.90
5834;DHT22;2943;48.012;10.968;2022-12-11T09:11:34;-2.80;99.90
5834;DHT22;2943;48.012;10.968;2022-12-11T09:14:02;-2.80;99.90
5834;DHT22;2943;48.012;10.968;2022-12-11T09:16:30;-2.70;99.90
5834;DHT22;2943;48.012;10.968;2022-12-11T09:18:58;-2.70;99.90
5834;DHT22;2943;48.012;10.968;2022-12-11T09:21:28;-2.70;99.90
5834;DHT22;2943;48.012;10.968;2022-12-11T09:23:57;-2.70;99.90
5834;DHT22;2943;48.012;10.968;2022-12-11T09:26:28;-2.60;99.90
5834;DHT22;2943;48.012;10.968;2022-12-11T09:28:55;-2.60;99.90
5834;DHT22;2943;48.012;10.968;2022-12-11T09:31:26;-2.60;99.90
5834;DHT22;2943;48.012;10.968;2022-12-11T09:33:57;-2.50;99.90
5834;DHT22;2943;48.012;10.968;2022-12-11T09:36:24;-2.50;99.90
5834;DHT22;2943;48.012;10.968;2022-12-11T09:38:52;-2.60;99.90
5834;DHT22;2943;48.012;10.968;2022-12-11T09:41:47;-2.60;99.90
5834;DHT22;2943;48.012;10.968;2022-12-11T09:44:20;-2.50;99.90
5834;DHT22;2943;48.012;10.968;2022-12-11T09:46:50;-2.60;99.90
5834;DHT22;2943;48.012;10.968;2022-12-11T09:49:32;-2.50;99.90
5834;DHT22;2943;48.012;10.968;2022-12-11T09:52:07;-2.50;99.90
5834;DHT22;2943;48.012;10.968;2022-12-11T09:54:37;-2.50;99.90
5834;DHT22;2943;48.012;10.968;2022-12-11T09:57:14;-2.50;99.90
5834;DHT22;2943;48.012;10.968;2022-12-11T09:59:54;-2.50;99.90
5834;DHT22;2943;48.012;10.968;2022-12-11T10:02:34;-2.50;99.90
5834;DHT22;2943;48.012;10.968;2022-12-11T10:05:12;-2.50;99.90
5834;DHT22;2943;48.012;10.968;2022-12-11T10:07:47;-2.40;99.90
5834;DHT22;2943;48.012;10.968;2022-12-11T10:10:22;-2.40;99.90
5834;DHT22;2943;48.012;10.968;2022-12-11T10:13:00;-2.40;99.90
5834;DHT22;2943;48.012;10.968;2022-12-11T10:15:36;-2.20;99.90
5834;DHT22;2943;48.012;10.968;2022-12-11T10:18:11;-2.10;99.90
5834;DHT22;2943;48.012;10.968;2022-12-11T10:20:41;-1.90;99.90
5834;DHT22;2943;48.012;10.968;2022-12-11T10:23:15;-1.80;99.90
5834;DHT22;2943;48.012;10.968;2022-12-11T10:25:48;-1.60;99.90
5834;DHT22;2943;48.012;10.968;2022-12-11T10:28:19;-1.50;99.90
5834;DHT22;2943;48.012;10.968;2022-12-11T10:30:50;-1.50;99.90
5834;DHT22;2943;48.012;10.968;2022-12-11T10:33:26;-1.50;99.90
5834;DHT22;2943;48.012;10.968;2022-12-11T10:35:57;-1.50;99.90
5834;DHT22;2943;48.012;10.968;2022-12-11T10:38:27;-1.60;99.90
5834;DHT22;2943;48.012;10.968;2022-12-11T10:40:57;-1.70;99.90
5834;DHT22;2943;48.012;10.968;2022-12-11T10:43:37;-1.70;99.90
5834;DHT22;2943;48.012;10.968;2022-12-11T10:46:11;-1.70;99.90
5834;DHT22;2943;48.012;10.968;2022-12-11T10:48:45;-1.80;99.90
5834;DHT22;2943;48.012;10.968;2022-12-11T10:51:13;-1.80;99.90
5834;DHT22;2943;48.012;10.968;2022-12-11T10:53:41;-1.60;99.90
5834;DHT22;2943;48.012;10.968;2022-12-11T10:56:10;-1.40;99.90
5834;DHT22;2943;48.012;10.968;2022-12-11T10:58:47;-1.20;99.90
5834;DHT22;2943;48.012;10.968;2022-12-11T11:01:17;-1.00;99.90
5834;DHT22;2943;48.012;10.968;2022-12-11T11:03:53;-0.80;99.90
5834;DHT22;2943;48.012;10.968;2022-12-11T11:06:22;-0.70;99.90
5834;DHT22;2943;48.012;10.968;2022-12-11T11:08:51;-0.60;99.90
5834;DHT22;2943;48.012;10.968;2022-12-11T11:11:25;-0.60;99.90
5834;DHT22;2943;48.012;10.968;2022-12-11T11:14:04;-0.70;99.90
5834;DHT22;2943;48.012;10.968;2022-12-11T11:16:34;-0.80;99.90
5834;DHT22;2943;48.012;10.968;2022-12-11T11:19:02;-1.10;99.90
5834;DHT22;2943;48.012;10.968;2022-12-11T11:21:29;-1.20;99.90
5834;DHT22;2943;48.012;10.968;2022-12-11T11:23:57;-1.20;99.90
5834;DHT22;2943;48.012;10.968;2022-12-11T11:26:24;-1.20;99.90
5834;DHT22;2943;48.012;10.968;2022-12-11T11:28:54;-1.30;99.90
5834;DHT22;2943;48.012;10.968;2022-12-11T11:31:31;-1.30;99.90
5834;DHT22;2943;48.012;10.968;2022-12-11T11:34:01;-1.30;99.90
5834;DHT22;2943;48.012;10.968;2022-12-11T11:36:30;-1.20;99.90
5834;DHT22;2943;48.012;10.968;2022-12-11T11:39:06;-1.10;99.90
5834;DHT22;2943;48.012;10.968;2022-12-11T11:41:45;-1.00;99.90
5834;DHT22;2943;48.012;10.968;2022-12-11T11:44:18;-0.90;99.90
5834;DHT22;2943;48.012;10.968;2022-12-11T11:46:54;-0.90;99.90
5834;DHT22;2943;48.012;10.968;2022-12-11T11:49:30;-0.90;99.90
5834;DHT22;2943;48.012;10.968;2022-12-11T11:52:06;-1.00;99.90
5834;DHT22;2943;48.012;10.968;2022-12-11T11:54:44;-1.10;99.90
5834;DHT22;2943;48.012;10.968;2022-12-11T11:57:17;-1.10;99.90
5834;DHT22;2943;48.012;10.968;2022-12-11T11:59:50;-1.00;99.90
5834;DHT22;2943;48.012;10.968;2022-12-11T12:02:20;-1.10;99.90
5834;DHT22;2943;48.012;10.968;2022-12-11T12:04:47;-1.10;99.90
5834;DHT22;2943;48.012;10.968;2022-12-11T12:07:32;-1.20;99.90
5834;DHT22;2943;48.012;10.968;2022-12-11T12:10:08;-1.30;99.90
5834;DHT22;2943;48.012;10.968;2022-12-11T12:12:42;-1.20;99.90
5834;DHT22;2943;48.012;10.968;2022-12-11T12:15:24;-1.20;99.90
5834;DHT22;2943;48.012;10.968;2022-12-11T12:17:55;-1.20;99.90
5834;DHT22;2943;48.012;10.968;2022-12-11T12:20:37;-1.30;99.90
5834;DHT22;2943;48.012;10.968;2022-12-11T12:23:23;-1.30;99.90
5834;DHT22;2943;48.012;10.968;2022-12-11T12:25:58;-1.30;99.90
5834;DHT22;2943;48.012;10.968;2022-12-11T12:28:35;-1.30;99.90
5834;DHT22;2943;48.012;10.968;2022-12-11T12:31:15;-1.20;99.90
5834;DHT22;2943;48.012;10.968;2022-12-11T12:33:51;-1.20;99.90
5834;DHT22;2943;48.012;10.968;2022-12-11T12:36:26;-1.20;99.90
5834;DHT22;2943;48.012;10.968;2022-12-11T12:39:02;-1.30;99.90
5834;DHT22;2943;48.012;10.968;2022-12-11T12:41:39;-1.30;99.90
5834;DHT22;2943;48.012;10.968;2022-12-11T12:44:12;-1.30;99.90
5834;DHT22;2943;48.012;10.968;2022-12-11T12:46:53;-1.30;99.90
5834;DHT22;2943;48.012;10.968;2022-12-11T12:49:37;-1.20;99.90
5834;DHT22;2943;48.012;10.968;2022-12-11T12:52:10;-1.20;99.90
5834;DHT22;2943;48.012;10.968;2022-12-11T12:54:37;-1.30;99.90
5834;DHT22;2943;48.012;10.968;2022-12-11T12:57:06;-1.40;99.90
5834;DHT22;2943;48.012;10.968;2022-12-11T12:59:33;-1.40;99.90
5834;DHT22;2943;48.012;10.968;2022-12-11T13:02:03;-1.40;99.90
5834;DHT22;2943;48.012;10.968;2022-12-11T13:04:37;-1.40;99.90
5834;DHT22;2943;48.012;10.968;2022-12-11T13:07:13;-1.50;99.90
5834;DHT22;2943;48.012;10.968;2022-12-11T13:09:42;-1.50;99.90
5834;DHT22;2943;48.012;10.968;2022-12-11T13:12:14;-1.60;99.90
5834;DHT22;2943;48.012;10.968;2022-12-11T13:14:41;-1.50;99.90
5834;DHT22;2943;48.012;10.968;2022-12-11T13:17:25;-1.50;99.90
5834;DHT22;2943;48.012;10.968;2022-12-11T13:20:15;-1.50;99.90
5834;DHT22;2943;48.012;10.968;2022-12-11T13:22:48;-1.50;99.90
5834;DHT22;2943;48.012;10.968;2022-12-11T13:25:21;-1.60;99.90
5834;DHT22;2943;48.012;10.968;2022-12-11T13:27:48;-1.60;99.90
5834;DHT22;2943;48.012;10.968;2022-12-11T13:30:23;-1.70;99.90
5834;DHT22;2943;48.012;10.968;2022-12-11T13:33:00;-1.80;99.90
5834;DHT22;2943;48.012;10.968;2022-12-11T13:35:30;-1.80;99.90
5834;DHT22;2943;48.012;10.968;2022-12-11T13:38:02;-1.80;99.90
5834;DHT22;2943;48.012;10.968;2022-12-11T13:40:35;-1.80;99.90
5834;DHT22;2943;48.012;10.968;2022-12-11T13:43:04;-1.80;99.90
5834;DHT22;2943;48.012;10.968;2022-12-11T13:45:38;-1.80;99.90
5834;DHT22;2943;48.012;10.968;2022-12-11T13:48:17;-1.80;99.90
5834;DHT22;2943;48.012;10.968;2022-12-11T13:50:45;-1.70;99.90
5834;DHT22;2943;48.012;10.968;2022-12-11T13:53:14;-1.80;99.90
5834;DHT22;2943;48.012;10.968;2022-12-11T13:55:41;-1.80;99.90
5834;DHT22;2943;48.012;10.968;2022-12-11T13:58:15;-1.80;99.90
5834;DHT22;2943;48.012;10.968;2022-12-11T14:00:53;-1.80;99.90
5834;DHT22;2943;48.012;10.968;2022-12-11T14:03:24;-1.80;99.90
5834;DHT22;2943;48.012;10.968;2022-12-11T14:05:52;-1.70;99.90
5834;DHT22;2943;48.012;10.968;2022-12-11T14:08:21;-1.70;99.90
5834;DHT22;2943;48.012;10.968;2022-12-11T14:10:51;-1.70;99.90
5834;DHT22;2943;48.012;10.968;2022-12-11T14:13:21;-1.70;99.90
5834;DHT22;2943;48.012;10.968;2022-12-11T14:15:48;-1.70;99.90
5834;DHT22;2943;48.012;10.968;2022-12-11T14:18:18;-1.70;99.90
5834;DHT22;2943;48.012;10.968;2022-12-11T14:20:52;-1.70;99.90
5834;DHT22;2943;48.012;10.968;2022-12-11T14:23:22;-1.70;99.90
5834;DHT22;2943;48.012;10.968;2022-12-11T14:25:52;-1.70;99.90
5834;DHT22;2943;48.012;10.968;2022-12-11T14:28:19;-1.70;99.90
5834;DHT22;2943;48.012;10.968;2022-12-11T14:30:49;-1.60;99.90
5834;DHT22;2943;48.012;10.968;2022-12-11T14:33:17;-1.60;99.90
5834;DHT22;2943;48.012;10.968;2022-12-11T14:35:48;-1.50;99.90
5834;DHT22;2943;48.012;10.968;2022-12-11T14:38:19;-1.60;99.90
5834;DHT22;2943;48.012;10.968;2022-12-11T14:40:52;-1.60;99.90
5834;DHT22;2943;48.012;10.968;2022-12-11T14:43:24;-1.60;99.90
5834;DHT22;2943;48.012;10.968;2022-12-11T14:45:55;-1.70;99.90
5834;DHT22;2943;48.012;10.968;2022-12-11T14:48:27;-1.70;99.90
5834;DHT22;2943;48.012;10.968;2022-12-11T14:50:58;-1.70;99.90
5834;DHT22;2943;48.012;10.968;2022-12-11T14:53:27;-1.70;99.90
5834;DHT22;2943;48.012;10.968;2022-12-11T14:56:00;-1.70;99.90
5834;DHT22;2943;48.012;10.968;2022-12-11T14:58:28;-1.70;99.90
5834;DHT22;2943;48.012;10.968;2022-12-11T15:00:57;-1.80;99.90
5834;DHT22;2943;48.012;10.968;2022-12-11T15:03:29;-1.90;99.90
5834;DHT22;2943;48.012;10.968;2022-12-11T15:06:00;-1.90;99.90
5834;DHT22;2943;48.012;10.968;2022-12-11T15:08:28;-2.00;99.90
5834;DHT22;2943;48.012;10.968;2022-12-11T15:11:01;-2.00;99.90
5834;DHT22;2943;48.012;10.968;2022-12-11T15:13:29;-2.00;99.90
5834;DHT22;2943;48.012;10.968;2022-12-11T15:15:57;-2.10;99.90
5834;DHT22;2943;48.012;10.968;2022-12-11T15:18:27;-2.10;99.90
5834;DHT22;2943;48.012;10.968;2022-12-11T15:20:56;-2.10;99.90
5834;DHT22;2943;48.012;10.968;2022-12-11T15:23:26;-2.10;99.90
5834;DHT22;2943;48.012;10.968;2022-12-11T15:25:55;-2.10;99.90
5834;DHT22;2943;48.012;10.968;2022-12-11T15:28:26;-2.10;99.90
5834;DHT22;2943;48.012;10.968;2022-12-11T15:30:57;-2.10;99.90
5834;DHT22;2943;48.012;10.968;2022-12-11T15:33:24;-1.80;99.90
5834;DHT22;2943;48.012;10.968;2022-12-11T15:36:00;-1.60;99.90
5834;DHT22;2943;48.012;10.968;2022-12-11T15:38:31;-1.50;99.90
5834;DHT22;2943;48.012;10.968;2022-12-11T15:40:59;-1.30;99.90
5834;DHT22;2943;48.012;10.968;2022-12-11T15:43:27;-1.20;99.90
5834;DHT22;2943;48.012;10.968;2022-12-11T15:45:56;-1.10;99.90
5834;DHT22;2943;48.012;10.968;2022-12-11T15:48:24;-1.00;99.90
5834;DHT22;2943;48.012;10.968;2022-12-11T15:50:51;-1.00;99.90
5834;DHT22;2943;48.012;10.968;2022-12-11T15:53:18;-1.00;99.90
5834;DHT22;2943;48.012;10.968;2022-12-11T15:55:46;-1.10;99.90
5834;DHT22;2943;48.012;10.968;2022-12-11T15:58:14;-1.30;99.90
5834;DHT22;2943;48.012;10.968;2022-12-11T16:00:43;-1.40;99.90
5834;DHT22;2943;48.012;10.968;2022-12-11T16:03:11;-1.50;99.90
5834;DHT22;2943;48.012;10.968;2022-12-11T16:05:39;-1.60;99.90